Summerwind — WDF3461 — position and weather

sailwx.info

Track history (hours):
 
Tides and Currents Weather Stations Pressure Air Temp Water Temp Dewpoint Dewpoint Depression Visibility Wind Speed Wind Dir Waves Ship Positions

Summerwind (United States)

Ship's website: http://www.usmma.edu/waterfront

Owner: US Merchant Marine Academy, Kings Point, NY. More information available from US FCC via Universal Licensing System and Coast Guard Vessel Documentation Center.

Last reported at 2015-Jul-27 18:27 UTC. Time now 2015-Aug-29 23:37 UTC.
Position N 41°26' W 071°24'.
Warning: this ship's position is 33 days out of date.

Length 30 m.

Type: Sailing vessel. MMSI: 367440150.

Date/timePositionNaut miles runAvg speedWind from/ knotsBaromVisibWave heightAir tempDewpointWater temp
2015-Jul-27 18:27N 41°26' W 071°24'7 6.7
2015-Jul-27 17:28N 41°21' W 071°30'6 7.0
2015-Jul-27 16:33N 41°19' W 071°38'7 7.2
2015-Jul-27 15:33N 41°18' W 071°48'8 8.1
2015-Jul-27 14:33N 41°18' W 071°59'  
2015-Jul-21 01:32N 41°22' W 071°58'1 1.1
2015-Jul-21 00:33N 41°21' W 071°58'3 2.7
2015-Jul-20 23:33N 41°18' W 071°57'4 4.3
2015-Jul-20 22:34N 41°18' W 071°51'5 4.7
2015-Jul-20 21:33N 41°18' W 071°45'5 5.0
2015-Jul-20 20:33N 41°20' W 071°39'6 5.9
2015-Jul-20 19:33N 41°21' W 071°31'5 5.0
2015-Jul-20 18:33N 41°24' W 071°25'  
Track history (hours):
 
Tides and Currents Weather Stations Pressure Air Temp Water Temp Dewpoint Dewpoint Depression Visibility Wind Speed Wind Dir Waves Ship Positions

Summerwind (United States)

Ship's website: http://www.usmma.edu/waterfront

Owner: US Merchant Marine Academy, Kings Point, NY. More information available from US FCC via Universal Licensing System and Coast Guard Vessel Documentation Center.

Last reported at 2015-Jul-27 18:27 UTC. Time now 2015-Aug-29 23:37 UTC.
Position N 41°26' W 071°24'.
Warning: this ship's position is 33 days out of date.

Length 30 m.

Type: Sailing vessel. MMSI: 367440150.

Date/timePositionNaut miles runAvg speedWind from/ knotsBaromVisibWave heightAir tempDewpointWater temp
2015-Jul-27 18:27N 41°26' W 071°24'7 6.7
2015-Jul-27 17:28N 41°21' W 071°30'6 7.0
2015-Jul-27 16:33N 41°19' W 071°38'7 7.2
2015-Jul-27 15:33N 41°18' W 071°48'8 8.1
2015-Jul-27 14:33N 41°18' W 071°59'  
2015-Jul-21 01:32N 41°22' W 071°58'1 1.1
2015-Jul-21 00:33N 41°21' W 071°58'3 2.7
2015-Jul-20 23:33N 41°18' W 071°57'4 4.3
2015-Jul-20 22:34N 41°18' W 071°51'5 4.7
2015-Jul-20 21:33N 41°18' W 071°45'5 5.0
2015-Jul-20 20:33N 41°20' W 071°39'6 5.9
2015-Jul-20 19:33N 41°21' W 071°31'5 5.0
2015-Jul-20 18:33N 41°24' W 071°25'  

Dump ship's entire track history